Boyd, Texas
Current Conditions -  °F | °C
As of 12:55 PM on Thursday 30 Oct 2014 (Local Time) from KLUD Reporting Station
Scattered Clouds Scattered Clouds  
Wind Chill: 74°   Ceiling: Unl
Heat Index: 74°   Visibility: 10mi
Dew Point: 50°   Wind: 8mph
Humidity: 43%   Direction: 180°S
Pressure: 30.13"   Gusts: NA
Location:  33.08°N, 97.57°W
Report Text: KLUD 301755Z AUTO 18007KT 10SM SCT032 23/10 A3013 RMK AO2 T02310098 10231 20115
Loading
Personal Weather Stations






























Interactive Weather Map
Tropical Storm Tracking
New forecast layout! Learn more

10-Day Weather Forecast

Advertisements
Track Severe Weather on mobile